createdAt,value
2018-02-20T00:00:43.003Z,60.37
2018-02-20T00:03:11.833Z,58.90
2018-02-20T00:05:40.020Z,60.17
2018-02-20T00:08:08.064Z,62.87
2018-02-20T00:10:36.111Z,58.43
2018-02-20T00:13:05.036Z,66.23
2018-02-20T00:15:33.131Z,68.90
2018-02-20T00:18:01.172Z,79.47
2018-02-20T00:20:29.351Z,67.90
2018-02-20T00:23:04.347Z,67.67
2018-02-20T00:25:32.398Z,56.90
2018-02-20T00:28:00.448Z,65.47
2018-02-20T00:30:28.499Z,68.43
2018-02-20T00:32:56.675Z,82.77
2018-02-20T00:35:24.724Z,61.70
2018-02-20T00:37:53.507Z,59.23
2018-02-20T00:40:22.427Z,57.70
2018-02-20T00:42:50.482Z,61.07
2018-02-20T00:45:19.395Z,76.80
2018-02-20T00:47:47.567Z,67.97
2018-02-20T00:50:15.696Z,59.50
2018-02-20T00:52:43.743Z,58.80
2018-02-20T00:55:11.959Z,72.07
2018-02-20T00:57:40.738Z,63.27
2018-02-20T01:00:08.847Z,63.80
2018-02-20T01:02:37.025Z,65.70
2018-02-20T01:05:05.095Z,69.00
2018-02-20T01:07:33.149Z,76.03
2018-02-20T01:10:02.063Z,63.57
2018-02-20T01:12:30.856Z,69.53
2018-02-20T01:14:58.903Z,65.47
2018-02-20T01:17:27.815Z,77.23
2018-02-20T01:19:55.975Z,57.27
2018-02-20T01:22:24.818Z,75.07
2018-02-20T01:24:52.992Z,59.57
2018-02-20T01:27:21.056Z,76.93
2018-02-20T01:29:49.108Z,63.83
2018-02-20T01:32:17.439Z,74.97
2018-02-20T01:34:45.512Z,66.97
2018-02-20T01:37:13.596Z,74.37
2018-02-20T01:39:42.512Z,68.17
2018-02-20T01:42:10.566Z,82.63
2018-02-20T01:44:39.420Z,63.80
2018-02-20T01:47:07.750Z,63.63
2018-02-20T01:49:36.546Z,69.13
2018-02-20T01:52:04.583Z,60.03
2018-02-20T01:54:32.859Z,73.40
2018-02-20T01:57:00.915Z,70.50
2018-02-20T01:59:28.976Z,69.60
2018-02-20T02:01:57.146Z,70.77
2018-02-20T02:04:25.236Z,78.27
2018-02-20T02:06:53.279Z,58.87
2018-02-20T02:09:21.448Z,62.87
2018-02-20T02:11:49.503Z,67.07
2018-02-20T02:14:18.336Z,70.00
2018-02-20T02:16:46.555Z,60.53
2018-02-20T02:19:15.371Z,59.83
2018-02-20T02:21:43.420Z,62.77
2018-02-20T02:24:11.691Z,85.57
2018-02-20T02:26:40.475Z,77.37
2018-02-20T02:29:08.557Z,76.03
2018-02-20T02:31:37.463Z,81.63
2018-02-20T02:34:05.530Z,61.90
2018-02-20T02:36:34.324Z,61.20
2018-02-20T02:39:02.556Z,65.87
2018-02-20T02:41:30.619Z,59.90
2018-02-20T02:43:58.708Z,73.07
2018-02-20T02:46:26.885Z,69.90
2018-02-20T02:48:55.068Z,72.57
2018-02-20T02:51:23.129Z,69.23
2018-02-20T02:53:51.432Z,66.50
2018-02-20T02:56:20.241Z,60.07
2018-02-20T02:58:48.296Z,76.13
2018-02-20T03:01:17.471Z,67.77
2018-02-20T03:03:45.676Z,72.63
2018-02-20T03:06:14.476Z,58.47
2018-02-20T03:08:43.388Z,60.07
2018-02-20T03:11:11.428Z,75.73
2018-02-20T03:13:40.179Z,56.13
2018-02-20T03:16:08.323Z,58.90
2018-02-20T03:18:36.351Z,56.23
2018-02-20T03:21:04.360Z,68.83
2018-02-20T03:23:32.557Z,63.77
2018-02-20T03:26:00.588Z,66.23
2018-02-20T03:28:29.347Z,67.37
2018-02-20T03:30:57.496Z,58.23
2018-02-20T03:33:25.553Z,57.73
2018-02-20T03:35:53.571Z,67.20
2018-02-20T03:38:21.708Z,75.93
2018-02-20T03:40:49.725Z,57.50
2018-02-20T03:43:17.727Z,47.77
2018-02-20T03:45:45.899Z,60.13
2018-02-20T03:48:13.920Z,64.70
2018-02-20T03:50:42.108Z,63.87
2018-02-20T03:53:10.248Z,67.60
2018-02-20T03:55:38.271Z,61.87
2018-02-20T03:58:07.023Z,63.60
2018-02-20T04:00:35.177Z,65.97
2018-02-20T04:03:03.271Z,59.80
2018-02-20T04:05:31.344Z,72.53
2018-02-20T04:07:59.496Z,64.17
2018-02-20T04:10:27.648Z,65.17
2018-02-20T04:12:56.436Z,80.93
2018-02-20T04:15:25.312Z,76.63
2018-02-20T04:17:53.310Z,81.10
2018-02-20T04:20:21.347Z,73.73
2018-02-20T04:22:50.260Z,67.50
2018-02-20T04:25:19.024Z,71.03
2018-02-20T04:27:47.067Z,85.57
2018-02-20T04:30:15.195Z,75.30
2018-02-20T04:32:43.987Z,71.50
2018-02-20T04:35:12.745Z,77.77
2018-02-20T04:37:40.902Z,76.27
2018-02-20T04:40:08.927Z,72.53
2018-02-20T04:42:37.691Z,69.80
2018-02-20T04:45:05.864Z,65.50
2018-02-20T04:47:33.886Z,86.70
2018-02-20T04:50:01.894Z,69.27
2018-02-20T04:52:30.175Z,85.93
2018-02-20T04:54:58.213Z,57.80
2018-02-20T04:57:26.232Z,79.13
2018-02-20T04:59:55.138Z,82.63
2018-02-20T05:02:23.904Z,64.53
2018-02-20T05:04:51.954Z,82.07
2018-02-20T05:07:20.127Z,100.93
2018-02-20T05:09:48.130Z,87.70
2018-02-20T05:12:16.887Z,80.37
2018-02-20T05:14:45.064Z,62.37
2018-02-20T05:17:13.099Z,76.80
2018-02-20T05:19:41.119Z,82.37
2018-02-20T05:22:09.304Z,71.33
2018-02-20T05:24:38.139Z,73.43
2018-02-20T05:27:06.156Z,61.57
2018-02-20T05:29:34.297Z,61.13
2018-02-20T05:32:02.316Z,66.03
2018-02-20T05:34:30.459Z,60.53
2018-02-20T05:36:58.599Z,69.80
2018-02-20T05:39:26.624Z,64.17
2018-02-20T05:41:54.643Z,70.70
2018-02-20T05:44:22.851Z,62.83
2018-02-20T05:46:50.883Z,55.23
2018-02-20T05:49:19.639Z,63.00
2018-02-20T05:51:47.904Z,71.87
2018-02-20T05:54:16.148Z,84.40
2018-02-20T05:56:44.340Z,67.63
2018-02-20T05:59:12.504Z,77.97
2018-02-20T06:01:40.598Z,71.00
2018-02-20T06:04:11.948Z,79.70
2018-02-20T06:06:45.869Z,72.23
2018-02-20T06:09:17.044Z,79.03
2018-02-20T06:11:46.067Z,75.97
2018-02-20T06:14:14.909Z,52.17
2018-02-20T06:16:44.011Z,65.40
2018-02-20T06:19:15.546Z,53.53
2018-02-20T06:21:46.597Z,60.73
2018-02-20T06:24:21.625Z,60.60
2018-02-20T06:26:50.242Z,67.90
2018-02-20T06:29:22.401Z,77.50
2018-02-20T06:31:50.858Z,63.47
2018-02-20T06:34:21.590Z,51.93
2018-02-20T06:36:53.509Z,74.50
2018-02-20T06:39:21.767Z,65.83
2018-02-20T06:41:56.607Z,50.47
2018-02-20T06:44:24.966Z,56.60
2018-02-20T06:46:56.877Z,67.63
2018-02-20T06:49:28.596Z,70.60
2018-02-20T06:51:59.522Z,58.50
2018-02-20T06:54:27.971Z,62.93
2018-02-20T06:56:55.983Z,54.27
2018-02-20T06:59:24.756Z,64.70
2018-02-20T07:01:52.774Z,65.50
2018-02-20T07:04:20.844Z,69.33
2018-02-20T07:06:48.864Z,70.17
2018-02-20T07:09:16.891Z,52.07
2018-02-20T07:11:44.912Z,71.77
2018-02-20T07:14:13.044Z,58.73
2018-02-20T07:16:41.220Z,74.90
2018-02-20T07:19:09.251Z,67.87
2018-02-20T07:21:38.016Z,68.50
2018-02-20T07:24:06.144Z,61.67
2018-02-20T07:26:34.319Z,54.00
2018-02-20T07:29:02.334Z,55.40
2018-02-20T07:31:30.367Z,77.70
2018-02-20T07:33:58.451Z,60.83
2018-02-20T07:36:26.480Z,75.90
2018-02-20T07:38:55.242Z,68.03
2018-02-20T07:41:23.275Z,62.33
2018-02-20T07:43:51.421Z,64.57
2018-02-20T07:46:20.177Z,59.83
2018-02-20T07:48:48.196Z,79.00
2018-02-20T07:51:16.231Z,76.70
2018-02-20T07:53:44.465Z,59.37
2018-02-20T07:56:12.903Z,56.60
2018-02-20T07:58:41.234Z,83.50
2018-02-20T08:01:10.132Z,92.73
2018-02-20T08:03:38.279Z,58.07
2018-02-20T08:06:06.420Z,82.00
2018-02-20T08:08:34.620Z,90.37
2018-02-20T08:11:03.044Z,76.67
2018-02-20T08:13:31.079Z,79.13
2018-02-20T08:15:59.105Z,68.53
2018-02-20T08:18:27.103Z,81.33
2018-02-20T08:20:55.895Z,99.33
2018-02-20T08:23:24.749Z,98.97
2018-02-20T08:25:52.767Z,93.67
2018-02-20T08:28:20.784Z,94.43
2018-02-20T08:30:48.807Z,100.93
2018-02-20T08:33:17.551Z,113.33
2018-02-20T08:35:45.597Z,104.03
2018-02-20T08:38:15.550Z,94.00
2018-02-20T08:40:43.560Z,79.70
2018-02-20T08:43:11.623Z,118.30
2018-02-20T08:45:40.371Z,95.20
2018-02-20T08:48:08.450Z,87.27
2018-02-20T08:50:36.479Z,94.07
2018-02-20T08:53:04.480Z,91.93
2018-02-20T08:55:32.503Z,94.97
2018-02-20T08:58:01.416Z,95.17
2018-02-20T09:00:29.423Z,111.23
2018-02-20T09:02:57.456Z,106.53
2018-02-20T09:05:25.486Z,100.13
2018-02-20T09:07:53.520Z,101.87
2018-02-20T09:10:21.557Z,100.03
2018-02-20T09:12:50.307Z,89.77
2018-02-20T09:15:18.348Z,90.87
2018-02-20T09:17:46.371Z,92.20
2018-02-20T09:20:15.131Z,104.83
2018-02-20T09:22:43.157Z,97.90
2018-02-20T09:25:11.163Z,97.50
2018-02-20T09:27:39.199Z,113.70
2018-02-20T09:30:07.248Z,129.97
2018-02-20T09:32:36.015Z,127.87
2018-02-20T09:35:04.065Z,114.57
2018-02-20T09:37:32.108Z,99.97
2018-02-20T09:40:00.119Z,115.40
2018-02-20T09:42:28.147Z,124.83
2018-02-20T09:44:56.167Z,116.27
2018-02-20T09:47:24.197Z,120.10
2018-02-20T09:49:52.228Z,120.63
2018-02-20T09:52:20.243Z,107.10
2018-02-20T09:54:48.326Z,115.07
2018-02-20T09:57:16.351Z,117.37
2018-02-20T09:59:44.519Z,96.83
2018-02-20T10:02:12.539Z,103.67
2018-02-20T10:04:40.668Z,99.13
2018-02-20T10:07:08.685Z,118.87
2018-02-20T10:09:36.699Z,88.27
2018-02-20T10:12:04.721Z,122.30
2018-02-20T10:14:32.802Z,120.00
2018-02-20T10:17:00.799Z,106.37
2018-02-20T10:19:28.820Z,106.43
2018-02-20T10:21:57.587Z,123.93
2018-02-20T10:24:25.721Z,114.30
2018-02-20T10:26:53.771Z,124.47
2018-02-20T10:29:21.796Z,103.70
2018-02-20T10:31:49.808Z,118.93
2018-02-20T10:34:17.920Z,110.33
2018-02-20T10:36:45.955Z,139.83
2018-02-20T10:39:13.999Z,111.60
2018-02-20T10:41:42.791Z,131.47
2018-02-20T10:44:12.451Z,105.20
2018-02-20T10:46:40.472Z,105.13
2018-02-20T10:49:08.523Z,104.77
2018-02-20T10:51:36.551Z,121.00
2018-02-20T10:54:04.644Z,112.37
2018-02-20T10:56:32.867Z,101.20
2018-02-20T10:59:00.939Z,125.30
2018-02-20T11:01:29.932Z,84.50
2018-02-20T11:03:59.022Z,96.47
2018-02-20T11:06:27.388Z,102.50
2018-02-20T11:08:55.565Z,103.83
2018-02-20T11:11:23.605Z,105.60
2018-02-20T11:13:51.679Z,95.70
2018-02-20T11:16:19.755Z,91.53
2018-02-20T11:18:47.803Z,87.83
2018-02-20T11:21:15.860Z,91.33
2018-02-20T11:23:44.683Z,88.80
2018-02-20T11:26:12.735Z,101.57
2018-02-20T11:28:40.775Z,93.60
2018-02-20T11:31:08.957Z,113.17
2018-02-20T11:33:37.797Z,102.50
2018-02-20T11:36:05.869Z,96.43
2018-02-20T11:38:33.886Z,114.97
2018-02-20T11:41:04.398Z,89.40
2018-02-20T11:43:32.843Z,105.67
2018-02-20T11:46:00.867Z,87.17
2018-02-20T11:48:28.896Z,96.03
2018-02-20T11:50:56.951Z,106.90
2018-02-20T11:53:25.034Z,105.50
2018-02-20T11:55:53.100Z,89.07
2018-02-20T11:58:21.148Z,91.37
2018-02-20T12:00:49.926Z,88.10
2018-02-20T12:03:18.852Z,82.33
2018-02-20T12:05:46.890Z,88.40
2018-02-20T12:08:15.656Z,98.57
2018-02-20T12:10:43.665Z,111.57
2018-02-20T12:13:12.429Z,113.20
2018-02-20T12:15:40.598Z,118.90
2018-02-20T12:18:08.707Z,124.97
2018-02-20T12:20:37.479Z,95.93
2018-02-20T12:23:06.256Z,80.30
2018-02-20T12:25:34.295Z,108.50
2018-02-20T12:28:02.376Z,94.07
2018-02-20T12:30:30.408Z,103.13
2018-02-20T12:32:58.519Z,109.07
2018-02-20T12:35:26.573Z,94.73
2018-02-20T12:37:54.676Z,98.90
2018-02-20T12:40:22.760Z,94.07
2018-02-20T12:42:50.920Z,110.10
2018-02-20T12:45:18.950Z,85.27
2018-02-20T12:47:46.961Z,104.40
2018-02-20T12:50:14.992Z,108.97
2018-02-20T12:52:43.011Z,101.63
2018-02-20T12:55:11.020Z,92.37
2018-02-20T12:57:39.772Z,103.10
2018-02-20T13:00:07.784Z,94.20
2018-02-20T13:02:35.852Z,94.80
2018-02-20T13:05:04.822Z,88.53
2018-02-20T13:07:32.872Z,105.00
2018-02-20T13:10:00.922Z,114.10
2018-02-20T13:12:29.068Z,105.73
2018-02-20T13:14:57.873Z,115.47
2018-02-20T13:17:25.904Z,92.67
2018-02-20T13:19:53.920Z,93.93
2018-02-20T13:22:21.942Z,119.23
2018-02-20T13:24:49.959Z,83.00
2018-02-20T13:27:17.971Z,96.93
2018-02-20T13:29:46.019Z,103.50
2018-02-20T13:32:14.055Z,103.57
2018-02-20T13:34:42.871Z,110.13
2018-02-20T13:37:10.888Z,96.97
2018-02-20T13:39:38.928Z,118.07
2018-02-20T13:42:06.980Z,118.00
2018-02-20T13:44:35.077Z,104.27
2018-02-20T13:47:03.112Z,118.40
2018-02-20T13:49:31.887Z,108.37
2018-02-20T13:52:00.635Z,100.70
2018-02-20T13:54:28.678Z,88.83
2018-02-20T13:56:56.695Z,112.30
2018-02-20T13:59:24.715Z,105.10
2018-02-20T14:01:52.751Z,102.57
2018-02-20T14:04:20.883Z,90.23
2018-02-20T14:06:49.039Z,108.17
2018-02-20T14:09:17.067Z,107.57
2018-02-20T14:11:45.104Z,111.47
2018-02-20T14:14:13.155Z,106.33
2018-02-20T14:16:41.931Z,102.53
2018-02-20T14:19:10.703Z,129.10
2018-02-20T14:21:39.467Z,109.30
2018-02-20T14:24:07.624Z,103.63
2018-02-20T14:26:40.023Z,105.50
2018-02-20T14:29:08.535Z,117.43
2018-02-20T14:31:37.857Z,112.37
2018-02-20T14:34:06.039Z,104.47
2018-02-20T14:36:34.084Z,119.07
2018-02-20T14:39:03.023Z,119.93
2018-02-20T14:41:31.048Z,138.30
2018-02-20T14:44:00.053Z,121.00
2018-02-20T14:46:28.928Z,127.23
2018-02-20T14:48:57.691Z,110.60
2018-02-20T14:51:25.698Z,116.07
2018-02-20T14:53:54.665Z,113.93
2018-02-20T14:56:22.684Z,113.97
2018-02-20T14:58:50.719Z,114.07
2018-02-20T15:01:18.860Z,97.70
2018-02-20T15:03:46.915Z,101.80
2018-02-20T15:06:14.948Z,104.13
2018-02-20T15:08:43.960Z,117.10
2018-02-20T15:11:12.093Z,127.90
2018-02-20T15:13:40.248Z,111.27
2018-02-20T15:16:08.405Z,141.77
2018-02-20T15:18:36.419Z,132.00
2018-02-20T15:21:04.458Z,114.90
2018-02-20T15:23:32.661Z,102.33
2018-02-20T15:26:00.680Z,149.17
2018-02-20T15:28:28.692Z,131.27
2018-02-20T15:30:56.844Z,118.60
2018-02-20T15:33:24.918Z,145.17
2018-02-20T15:35:52.944Z,114.53
2018-02-20T15:38:21.827Z,138.17
2018-02-20T15:40:50.003Z,133.53
2018-02-20T15:43:18.251Z,143.10
2018-02-20T15:45:46.524Z,116.10
2018-02-20T15:48:14.556Z,106.47
2018-02-20T15:50:42.573Z,113.60
2018-02-20T15:53:10.739Z,118.33
2018-02-20T15:55:38.775Z,112.50
2018-02-20T15:58:06.793Z,124.80
2018-02-20T16:00:34.947Z,92.03
2018-02-20T16:03:02.980Z,123.47
2018-02-20T16:05:31.728Z,110.53
2018-02-20T16:07:59.877Z,111.30
2018-02-20T16:10:28.075Z,108.43
2018-02-20T16:12:56.119Z,116.47
2018-02-20T16:15:24.416Z,124.03
2018-02-20T16:17:52.427Z,110.23
2018-02-20T16:20:20.596Z,111.37
2018-02-20T16:22:48.756Z,117.60
2018-02-20T16:25:16.756Z,116.33
2018-02-20T16:27:45.516Z,127.83
2018-02-20T16:30:13.672Z,103.43
2018-02-20T16:32:41.694Z,109.77
2018-02-20T16:35:10.458Z,110.73
2018-02-20T16:37:38.605Z,123.50
2018-02-20T16:40:06.623Z,116.53
2018-02-20T16:42:35.388Z,96.20
2018-02-20T16:45:03.534Z,114.27
2018-02-20T16:47:32.865Z,110.50
2018-02-20T16:50:00.894Z,84.00
2018-02-20T16:52:29.056Z,111.23
2018-02-20T16:54:57.140Z,116.07
2018-02-20T16:57:25.164Z,127.30
2018-02-20T16:59:53.919Z,98.57
2018-02-20T17:02:23.348Z,93.37
2018-02-20T17:04:51.749Z,127.00
2018-02-20T17:07:20.068Z,89.73
2018-02-20T17:09:48.284Z,105.07
2018-02-20T17:12:17.104Z,105.37
2018-02-20T17:14:47.287Z,97.20
2018-02-20T17:17:18.317Z,101.50
2018-02-20T17:19:48.937Z,77.83
2018-02-20T17:22:20.465Z,122.60
2018-02-20T17:24:49.307Z,109.67
2018-02-20T17:27:17.531Z,90.43
2018-02-20T17:29:45.588Z,112.77
2018-02-20T17:32:14.506Z,105.20
2018-02-20T17:43:32.655Z,80.37
2018-02-20T17:46:00.799Z,99.40
2018-02-20T17:48:28.828Z,113.97
2018-02-20T17:50:57.868Z,103.43
2018-02-20T17:53:28.712Z,86.90
2018-02-20T17:55:56.764Z,113.77
2018-02-20T17:58:28.083Z,96.87
2018-02-20T18:00:56.396Z,109.10
2018-02-20T18:03:24.579Z,101.60
2018-02-20T18:05:52.880Z,100.13
2018-02-20T18:14:08.187Z,109.33
2018-02-20T18:16:36.808Z,99.93
2018-02-20T18:19:05.547Z,92.17
2018-02-20T18:21:33.739Z,79.80
2018-02-20T18:24:01.899Z,97.90
2018-02-20T18:26:30.340Z,109.43
2018-02-20T18:28:59.248Z,92.17
2018-02-20T18:31:27.282Z,88.10
2018-02-20T18:33:56.123Z,102.03
2018-02-20T18:36:24.281Z,107.43
2018-02-20T18:38:52.312Z,120.63
2018-02-20T18:41:20.344Z,93.27
2018-02-20T18:43:48.521Z,88.90
2018-02-20T18:46:17.830Z,83.27
2018-02-20T18:48:45.839Z,83.77
2018-02-20T18:51:14.731Z,98.93
2018-02-20T18:53:43.703Z,107.47
2018-02-20T18:56:11.723Z,106.53
2018-02-20T18:58:39.884Z,114.53
2018-02-20T19:01:08.641Z,89.20
2018-02-20T19:03:36.784Z,97.80
2018-02-20T19:06:04.944Z,123.57
2018-02-20T19:08:33.051Z,71.33
2018-02-20T19:11:01.077Z,80.87
2018-02-20T19:13:29.288Z,97.27
2018-02-20T19:15:57.467Z,110.30
2018-02-20T19:18:25.510Z,94.67
2018-02-20T19:20:53.639Z,86.60
2018-02-20T19:23:21.755Z,98.77
2018-02-20T19:25:49.763Z,99.27
2018-02-20T19:28:17.918Z,138.10
2018-02-20T19:30:45.943Z,100.97
2018-02-20T19:33:14.763Z,125.67
2018-02-20T19:35:42.907Z,115.20
2018-02-20T19:38:10.932Z,126.87
2018-02-20T19:40:38.963Z,120.07
2018-02-20T19:43:07.851Z,122.87
2018-02-20T19:45:36.627Z,123.63
2018-02-20T19:48:04.719Z,90.83
2018-02-20T19:50:33.613Z,142.73
2018-02-20T19:53:02.387Z,113.90
2018-02-20T19:55:31.139Z,144.43
2018-02-20T19:57:59.284Z,115.07
2018-02-20T20:00:27.344Z,105.87
2018-02-20T20:02:55.360Z,112.37
2018-02-20T20:05:23.531Z,114.87
2018-02-20T20:07:51.544Z,126.53
2018-02-20T20:10:20.323Z,107.60
2018-02-20T20:12:48.656Z,108.27
2018-02-20T20:15:16.691Z,111.50
2018-02-20T20:17:45.571Z,125.93
2018-02-20T20:20:13.719Z,128.73
2018-02-20T20:22:41.727Z,130.73
2018-02-20T20:25:10.491Z,111.30
2018-02-20T20:27:38.629Z,117.60
2018-02-20T20:30:06.694Z,113.13
2018-02-20T20:32:34.722Z,119.00
2018-02-20T20:35:02.994Z,107.73
2018-02-20T20:37:31.024Z,121.67
2018-02-20T20:39:59.043Z,135.43
2018-02-20T20:42:27.190Z,111.17
2018-02-20T20:44:55.211Z,113.00
2018-02-20T20:47:23.979Z,117.00
2018-02-20T20:49:52.127Z,109.97
2018-02-20T20:52:20.148Z,93.77
2018-02-20T20:54:48.900Z,115.83
2018-02-20T20:57:17.044Z,113.03
2018-02-20T20:59:45.088Z,106.10
2018-02-20T21:02:13.103Z,103.90
2018-02-20T21:04:41.283Z,118.00
2018-02-20T21:07:09.325Z,103.33
2018-02-20T21:09:37.346Z,124.70
2018-02-20T21:12:05.496Z,101.40
2018-02-20T21:14:33.556Z,118.70
2018-02-20T21:17:01.616Z,103.90
2018-02-20T21:19:29.918Z,108.53
2018-02-20T21:21:57.920Z,140.77
2018-02-20T21:24:26.028Z,102.03
2018-02-20T21:26:54.352Z,122.23
2018-02-20T21:29:22.380Z,122.70
2018-02-20T21:31:50.420Z,127.00
2018-02-20T21:34:19.421Z,118.70
2018-02-20T21:36:48.212Z,113.03
2018-02-20T21:39:16.991Z,114.53
2018-02-20T21:41:45.166Z,103.47
2018-02-20T21:44:13.316Z,118.63
2018-02-20T21:46:41.362Z,122.20
2018-02-20T21:49:09.519Z,119.03
2018-02-20T21:51:37.566Z,129.80
2018-02-20T21:54:06.423Z,96.10
2018-02-20T21:56:34.610Z,113.80
2018-02-20T21:59:02.652Z,113.40
2018-02-20T22:01:30.708Z,127.07
2018-02-20T22:03:58.943Z,114.07
2018-02-20T22:06:26.987Z,101.10
2018-02-20T22:08:55.027Z,105.20
2018-02-20T22:11:23.204Z,128.37
2018-02-20T22:13:51.315Z,112.07
2018-02-20T22:16:19.368Z,109.27
2018-02-20T22:18:47.547Z,111.90
2018-02-20T22:21:15.732Z,96.87
2018-02-20T22:23:43.780Z,107.80
2018-02-20T22:26:12.011Z,118.90
2018-02-20T22:28:40.055Z,115.27
2018-02-20T22:31:08.107Z,115.17
2018-02-20T22:33:36.331Z,101.30
2018-02-20T22:36:04.399Z,98.73
2018-02-20T22:38:32.443Z,117.40
2018-02-20T22:41:00.628Z,117.77
2018-02-20T22:43:28.792Z,109.10
2018-02-20T22:45:56.827Z,115.03
2018-02-20T22:48:25.003Z,135.93
2018-02-20T22:50:53.048Z,129.30
2018-02-20T22:53:21.911Z,102.30
2018-02-20T22:55:50.100Z,112.80
2018-02-20T22:58:18.152Z,133.20
2018-02-20T23:00:46.208Z,118.47
2018-02-20T23:03:14.382Z,97.33
2018-02-20T23:05:42.427Z,105.90
2018-02-20T23:08:11.211Z,126.10
2018-02-20T23:10:40.124Z,119.23
2018-02-20T23:13:08.232Z,115.00
2018-02-20T23:15:36.266Z,115.27
2018-02-20T23:18:04.459Z,107.90
2018-02-20T23:20:32.507Z,91.70
2018-02-20T23:23:00.693Z,114.17
2018-02-20T23:25:28.871Z,117.67
2018-02-20T23:27:56.911Z,108.33
2018-02-20T23:30:25.720Z,126.13
2018-02-20T23:32:53.892Z,112.50
2018-02-20T23:35:22.695Z,111.03
2018-02-20T23:37:50.880Z,95.60
2018-02-20T23:40:19.043Z,83.90
2018-02-20T23:42:47.132Z,132.10
2018-02-20T23:45:15.192Z,114.30
2018-02-20T23:47:43.371Z,109.03
2018-02-20T23:50:11.411Z,100.83
2018-02-20T23:52:40.187Z,109.87
2018-02-20T23:55:08.351Z,125.03
2018-02-20T23:57:36.400Z,98.37
